Szolnok, Hungary
Current Conditions -  °F | °C
As of 4:15 PM on Saturday 22 Nov 2014 (Local Time) from LHSN Reporting Station
Haze Haze  
Wind Chill: 45°   Ceiling: 4000
Heat Index: 45°   Visibility: 2.5mi
Dew Point: 41°   Wind: 2mph
Humidity: 87%   Direction: 280°W
Pressure: 30.33"   Gusts: NA
Location:  47.18°N, 20.18°E
Report Text: LHSN 221415Z 28002KT 4000 BR FEW008 OVC040 07/05 Q1027 NOSIG RMK GRN
Loading
Personal Weather Stations






























Interactive Weather Map New forecast layout! Learn more

10-Day Weather Forecast

Advertisements
Track Severe Weather on mobile